Time;durP1;ratioP1;P1;durP2;ratioP2;P2;SDS_P1;SDS_P2;PMS_P1;PMS_P2;Temp;Humidity;BMP_temperature;BMP_pressure;BME280_temperature;BME280_humidity;BME280_pressure;Samples;Min_cycle;Max_cycle;Signal;HPM_P1;HPM_P2
2023/07/12 00:00:42;;;;;;;3.50;1.70;;;;;;;;;;5013996;28;20535;-48
2023/07/12 00:03:09;;;;;;;3.77;2.03;;;;;;;;;;5032669;28;20543;-47
2023/07/12 00:05:36;;;;;;;4.33;2.13;;;;;;;;;;5033767;28;20498;-48
2023/07/12 00:08:04;;;;;;;3.20;1.80;;;;;;;;;;5034094;28;20503;-48
2023/07/12 00:10:33;;;;;;;4.30;2.77;;;;;;;;;;5033677;28;21010;-48
2023/07/12 00:13:02;;;;;;;3.17;2.40;;;;;;;;;;5033047;28;20525;-48
2023/07/12 00:15:30;;;;;;;3.47;2.70;;;;;;;;;;5033686;28;20462;-49
2023/07/12 00:17:58;;;;;;;3.73;3.00;;;;;;;;;;5033869;28;20533;-48
2023/07/12 00:20:28;;;;;;;5.50;2.53;;;;;;;;;;5033460;28;20931;-48
2023/07/12 00:22:56;;;;;;;3.23;2.20;;;;;;;;;;5032975;28;20541;-49
2023/07/12 00:25:25;;;;;;;3.83;2.40;;;;;;;;;;5033191;28;20481;-49
2023/07/12 00:27:52;;;;;;;3.63;2.77;;;;;;;;;;5033521;28;20853;-48
2023/07/12 00:30:22;;;;;;;3.67;2.63;;;;;;;;;;5033420;28;20477;-48
2023/07/12 00:32:50;;;;;;;4.17;2.60;;;;;;;;;;5033341;28;20521;-48
2023/07/12 00:35:18;;;;;;;2.70;1.97;;;;;;;;;;5032201;28;20485;-49
2023/07/12 00:37:46;;;;;;;3.40;2.57;;;;;;;;;;5033188;28;20596;-48
2023/07/12 00:40:20;;;;;;;6.97;2.50;;;;;;;;;;5019906;28;20475;-48
2023/07/12 00:42:49;;;;;;;3.30;2.30;;;;;;;;;;5012893;28;20522;-48
2023/07/12 00:45:17;;;;;;;3.30;2.40;;;;;;;;;;5012797;28;20542;-49
2023/07/12 00:47:46;;;;;;;5.30;2.40;;;;;;;;;;5012906;28;20478;-49
2023/07/12 00:50:17;;;;;;;3.13;2.00;;;;;;;;;;5012675;28;20471;-48
2023/07/12 00:52:45;;;;;;;4.13;2.53;;;;;;;;;;5012855;28;20439;-49
2023/07/12 00:55:36;;;;;;;4.50;2.87;;;;;;;;;;5012878;28;20487;-49
2023/07/12 00:58:03;;;;;;;4.10;2.40;;;;;;;;;;5012367;28;20451;-49
2023/07/12 01:00:30;;;;;;;3.40;2.63;;;;;;;;;;5012730;28;20479;-49
2023/07/12 01:03:00;;;;;;;3.43;2.47;;;;;;;;;;4994247;28;20527;-48
2023/07/12 01:05:28;;;;;;;5.30;2.90;;;;;;;;;;4992766;28;20909;-47
2023/07/12 01:07:55;;;;;;;3.73;2.83;;;;;;;;;;4993210;28;20447;-48
2023/07/12 01:10:22;;;;;;;3.60;2.70;;;;;;;;;;4993184;28;20540;-48
2023/07/12 01:12:50;;;;;;;4.43;3.37;;;;;;;;;;4992682;28;20523;-48
2023/07/12 01:15:17;;;;;;;4.97;2.27;;;;;;;;;;4992976;28;20523;-49
2023/07/12 01:17:44;;;;;;;3.20;2.20;;;;;;;;;;4992373;28;20903;-49
2023/07/12 01:20:13;;;;;;;4.30;2.50;;;;;;;;;;4993298;28;20547;-50
2023/07/12 01:22:42;;;;;;;4.07;3.07;;;;;;;;;;4993158;28;20742;-49
2023/07/12 01:25:09;;;;;;;4.67;2.90;;;;;;;;;;4992467;28;20531;-48
2023/07/12 01:27:37;;;;;;;3.70;2.70;;;;;;;;;;4992863;28;20484;-48
2023/07/12 01:30:04;;;;;;;5.00;2.93;;;;;;;;;;4992762;28;21016;-48
2023/07/12 01:32:32;;;;;;;3.70;2.57;;;;;;;;;;4992552;28;20538;-48
2023/07/12 01:34:59;;;;;;;3.97;2.90;;;;;;;;;;4992495;28;20591;-49
2023/07/12 01:37:26;;;;;;;4.67;3.17;;;;;;;;;;4994027;28;20490;-48
2023/07/12 01:39:55;;;;;;;4.07;3.23;;;;;;;;;;5012356;28;20486;-48
2023/07/12 01:42:22;;;;;;;4.10;3.10;;;;;;;;;;5011662;28;20531;-48
2023/07/12 01:44:49;;;;;;;3.60;2.43;;;;;;;;;;5011911;28;20515;-48
2023/07/12 01:47:17;;;;;;;4.00;3.30;;;;;;;;;;5012128;28;20885;-48
2023/07/12 01:49:44;;;;;;;3.70;2.87;;;;;;;;;;5011954;28;20476;-48
2023/07/12 01:52:11;;;;;;;4.10;3.40;;;;;;;;;;5012246;28;20482;-49
2023/07/12 01:54:38;;;;;;;3.50;2.83;;;;;;;;;;5011407;28;20582;-49
2023/07/12 01:57:08;;;;;;;4.47;3.37;;;;;;;;;;5011383;28;20766;-48
2023/07/12 01:59:35;;;;;;;4.17;3.47;;;;;;;;;;5011630;28;20792;-49
2023/07/12 02:02:02;;;;;;;4.10;3.30;;;;;;;;;;5010616;28;20486;-49
2023/07/12 02:04:29;;;;;;;5.33;3.53;;;;;;;;;;5011159;28;20468;-48
2023/07/12 02:06:57;;;;;;;3.50;2.90;;;;;;;;;;5011556;28;20549;-48
2023/07/12 02:09:24;;;;;;;4.93;3.60;;;;;;;;;;5011279;28;20482;-48
2023/07/12 02:11:51;;;;;;;5.20;3.23;;;;;;;;;;5011585;28;20447;-48
2023/07/12 02:14:20;;;;;;;4.33;3.07;;;;;;;;;;5011445;28;20514;-49
2023/07/12 02:16:47;;;;;;;5.60;3.37;;;;;;;;;;5011585;28;20546;-48
2023/07/12 02:19:14;;;;;;;3.40;3.00;;;;;;;;;;5011524;28;20447;-49
2023/07/12 02:21:42;;;;;;;4.70;3.50;;;;;;;;;;5011314;28;20443;-47
2023/07/12 02:24:09;;;;;;;4.60;3.00;;;;;;;;;;5011052;28;20475;-48
2023/07/12 02:26:36;;;;;;;4.33;3.17;;;;;;;;;;5011091;28;20510;-48
2023/07/12 02:29:04;;;;;;;5.13;3.73;;;;;;;;;;5010790;28;20535;-48
2023/07/12 02:31:33;;;;;;;3.37;2.87;;;;;;;;;;5010405;28;20531;-49
2023/07/12 02:34:00;;;;;;;4.67;3.20;;;;;;;;;;5010634;28;20566;-49
2023/07/12 02:36:29;;;;;;;3.73;3.30;;;;;;;;;;5010652;28;20890;-48
2023/07/12 02:38:56;;;;;;;4.57;3.40;;;;;;;;;;5010820;28;20479;-48
2023/07/12 02:41:23;;;;;;;4.30;3.20;;;;;;;;;;5011240;28;20529;-49
2023/07/12 02:43:50;;;;;;;4.57;3.30;;;;;;;;;;5010558;28;20997;-49
2023/07/12 02:46:18;;;;;;;3.87;3.00;;;;;;;;;;5010877;28;21013;-48
2023/07/12 02:48:47;;;;;;;8.53;2.73;;;;;;;;;;5010614;28;20518;-48
2023/07/12 02:51:14;;;;;;;4.00;2.97;;;;;;;;;;5010780;28;20931;-49
2023/07/12 02:53:41;;;;;;;5.93;2.70;;;;;;;;;;5010880;28;20505;-49
2023/07/12 02:56:08;;;;;;;4.57;3.23;;;;;;;;;;5010324;28;20498;-48
2023/07/12 02:58:36;;;;;;;5.10;2.90;;;;;;;;;;5010906;28;20474;-48
2023/07/12 03:01:03;;;;;;;4.23;3.10;;;;;;;;;;5010502;28;21038;-49
2023/07/12 03:03:30;;;;;;;4.20;2.80;;;;;;;;;;5009956;28;20527;-49
2023/07/12 03:06:02;;;;;;;4.30;3.07;;;;;;;;;;5010550;28;20887;-49
2023/07/12 03:08:29;;;;;;;5.30;3.10;;;;;;;;;;5010689;28;20467;-48
2023/07/12 03:10:59;;;;;;;5.50;3.10;;;;;;;;;;5009878;28;21045;-49
2023/07/12 03:13:26;;;;;;;3.73;3.03;;;;;;;;;;5010144;28;20453;-48
2023/07/12 03:15:53;;;;;;;4.20;3.03;;;;;;;;;;5009864;28;20507;-49
2023/07/12 03:18:21;;;;;;;3.73;2.97;;;;;;;;;;5010097;28;20885;-49
2023/07/12 03:20:48;;;;;;;3.50;2.90;;;;;;;;;;5010299;28;20475;-49
2023/07/12 03:23:17;;;;;;;4.43;3.60;;;;;;;;;;5009986;28;20482;-48
2023/07/12 03:25:46;;;;;;;5.70;2.90;;;;;;;;;;5010116;28;21083;-48
2023/07/12 03:28:13;;;;;;;3.97;3.37;;;;;;;;;;5010455;28;20461;-49
2023/07/12 03:30:40;;;;;;;3.93;3.53;;;;;;;;;;5009928;28;20943;-49
2023/07/12 03:33:07;;;;;;;3.53;2.70;;;;;;;;;;5009850;28;20665;-48
2023/07/12 03:35:35;;;;;;;3.60;2.97;;;;;;;;;;5009778;28;20657;-49
2023/07/12 03:38:02;;;;;;;3.60;3.10;;;;;;;;;;5010327;28;20452;-49
2023/07/12 03:40:31;;;;;;;3.97;2.90;;;;;;;;;;5010175;28;20451;-48
2023/07/12 03:42:58;;;;;;;4.20;3.27;;;;;;;;;;5009722;28;20471;-48
2023/07/12 03:45:25;;;;;;;3.70;2.83;;;;;;;;;;5009085;28;21023;-48
2023/07/12 03:47:52;;;;;;;4.00;2.80;;;;;;;;;;5010516;28;20473;-48
2023/07/12 03:50:19;;;;;;;6.90;3.17;;;;;;;;;;5009951;28;20486;-48
2023/07/12 03:52:47;;;;;;;5.47;3.37;;;;;;;;;;5009159;28;21001;-49
2023/07/12 03:55:14;;;;;;;3.50;2.93;;;;;;;;;;5010048;28;20562;-48
2023/07/12 03:57:42;;;;;;;3.60;3.20;;;;;;;;;;5010354;28;20528;-49
2023/07/12 04:00:12;;;;;;;3.73;2.70;;;;;;;;;;5010059;28;20489;-49
2023/07/12 04:02:40;;;;;;;4.00;2.87;;;;;;;;;;5009900;28;20451;-49
2023/07/12 04:05:07;;;;;;;3.80;2.50;;;;;;;;;;5009773;28;20532;-49
2023/07/12 04:07:34;;;;;;;3.97;2.77;;;;;;;;;;5009946;28;20471;-48
2023/07/12 04:10:02;;;;;;;4.27;2.80;;;;;;;;;;5009185;28;20880;-49
2023/07/12 04:12:30;;;;;;;4.73;3.20;;;;;;;;;;5010109;28;20470;-49
2023/07/12 04:14:59;;;;;;;6.63;3.20;;;;;;;;;;5009385;28;20483;-48
2023/07/12 04:17:26;;;;;;;4.00;2.60;;;;;;;;;;5009702;28;20534;-48
2023/07/12 04:19:53;;;;;;;6.80;2.97;;;;;;;;;;5009927;28;20524;-49
2023/07/12 04:22:20;;;;;;;3.70;2.70;;;;;;;;;;5009451;28;20534;-49
2023/07/12 04:24:50;;;;;;;3.63;2.80;;;;;;;;;;5011250;28;20582;-49
2023/07/12 04:27:18;;;;;;;4.13;2.50;;;;;;;;;;5013460;28;20446;-49
2023/07/12 04:29:46;;;;;;;3.67;2.73;;;;;;;;;;5013555;28;20443;-48
2023/07/12 04:32:14;;;;;;;4.43;2.70;;;;;;;;;;5012991;28;20474;-50
2023/07/12 04:34:42;;;;;;;3.40;2.53;;;;;;;;;;5011768;28;20510;-49
2023/07/12 04:37:09;;;;;;;4.53;1.87;;;;;;;;;;5012573;28;20542;-48
2023/07/12 04:39:36;;;;;;;4.20;2.13;;;;;;;;;;5014143;28;20451;-48
2023/07/12 04:42:03;;;;;;;3.73;2.50;;;;;;;;;;5005590;28;20495;-48
2023/07/12 04:44:31;;;;;;;3.13;2.50;;;;;;;;;;4993841;28;20447;-48
2023/07/12 04:46:58;;;;;;;4.70;2.17;;;;;;;;;;4993572;28;20494;-49
2023/07/12 04:49:27;;;;;;;3.30;2.50;;;;;;;;;;4993695;28;20534;-48
2023/07/12 04:51:54;;;;;;;4.40;3.27;;;;;;;;;;5006834;28;20479;-49
2023/07/12 04:54:21;;;;;;;4.20;2.90;;;;;;;;;;5012791;28;20574;-49
2023/07/12 04:56:48;;;;;;;4.07;2.90;;;;;;;;;;5012298;28;20550;-49
2023/07/12 04:59:15;;;;;;;4.13;3.50;;;;;;;;;;5012850;28;20534;-48
2023/07/12 05:01:43;;;;;;;5.03;3.33;;;;;;;;;;5005178;28;20450;-47
2023/07/12 05:04:10;;;;;;;4.33;3.93;;;;;;;;;;5009845;28;21043;-48
2023/07/12 05:06:39;;;;;;;8.73;3.60;;;;;;;;;;5012554;28;20487;-49
2023/07/12 05:09:06;;;;;;;3.40;2.60;;;;;;;;;;5012842;28;20894;-50
2023/07/12 05:11:34;;;;;;;3.93;3.00;;;;;;;;;;5005625;28;20443;-48
2023/07/12 05:14:02;;;;;;;2.73;1.90;;;;;;;;;;5000875;28;20642;-49
2023/07/12 05:16:29;;;;;;;4.13;2.73;;;;;;;;;;5000924;28;20569;-48
2023/07/12 05:18:56;;;;;;;4.30;2.97;;;;;;;;;;5008813;28;20527;-48
2023/07/12 05:21:25;;;;;;;3.10;2.53;;;;;;;;;;5007083;28;20874;-48
2023/07/12 05:23:53;;;;;;;3.50;3.13;;;;;;;;;;5002234;28;20544;-48
2023/07/12 05:26:21;;;;;;;5.80;3.30;;;;;;;;;;5000758;28;20472;-49
2023/07/12 05:28:48;;;;;;;4.93;3.67;;;;;;;;;;5009998;28;20440;-49
2023/07/12 05:31:15;;;;;;;8.07;3.10;;;;;;;;;;5005107;28;20479;-49
2023/07/12 05:33:45;;;;;;;4.20;2.57;;;;;;;;;;5000087;28;20525;-48
2023/07/12 05:36:12;;;;;;;2.80;2.23;;;;;;;;;;5004805;28;20566;-48
2023/07/12 05:38:40;;;;;;;3.90;2.37;;;;;;;;;;5012412;28;20629;-48
2023/07/12 05:41:08;;;;;;;6.23;3.80;;;;;;;;;;5010800;28;20536;-48
2023/07/12 05:43:35;;;;;;;5.77;4.13;;;;;;;;;;5011413;28;20471;-47
2023/07/12 05:46:04;;;;;;;3.90;2.93;;;;;;;;;;5011963;28;20514;-48
2023/07/12 05:48:31;;;;;;;4.27;2.73;;;;;;;;;;5009488;28;20972;-49
2023/07/12 05:51:00;;;;;;;3.87;2.77;;;;;;;;;;5004843;28;20531;-49
2023/07/12 05:53:28;;;;;;;4.10;2.40;;;;;;;;;;5005849;28;20463;-48
2023/07/12 05:55:55;;;;;;;4.20;2.57;;;;;;;;;;4991418;28;20519;-49
2023/07/12 05:58:24;;;;;;;4.17;2.60;;;;;;;;;;5003307;28;20436;-50
2023/07/12 06:00:56;;;;;;;4.30;2.83;;;;;;;;;;5011024;28;20479;-49
2023/07/12 06:03:23;;;;;;;3.53;2.50;;;;;;;;;;5010599;28;20956;-51
2023/07/12 06:05:52;;;;;;;3.33;2.10;;;;;;;;;;5010771;28;20459;-51
2023/07/12 06:08:19;;;;;;;4.40;2.50;;;;;;;;;;5011706;28;20520;-51
2023/07/12 06:10:47;;;;;;;4.23;3.23;;;;;;;;;;5011552;28;21003;-51
2023/07/12 06:13:14;;;;;;;5.50;3.20;;;;;;;;;;5011242;28;20493;-51
2023/07/12 06:15:43;;;;;;;3.70;2.60;;;;;;;;;;5011249;28;20561;-51
2023/07/12 06:18:11;;;;;;;3.97;3.10;;;;;;;;;;5011299;28;20501;-51
2023/07/12 06:20:38;;;;;;;4.87;3.87;;;;;;;;;;5011531;28;20475;-49
2023/07/12 06:23:05;;;;;;;5.47;3.77;;;;;;;;;;5011427;28;20471;-49
2023/07/12 06:25:33;;;;;;;4.63;3.73;;;;;;;;;;5011424;28;20574;-49
2023/07/12 06:28:00;;;;;;;3.50;2.57;;;;;;;;;;5011049;28;20892;-50
2023/07/12 06:30:27;;;;;;;3.70;2.50;;;;;;;;;;5010912;28;20530;-53
2023/07/12 06:32:56;;;;;;;7.27;3.73;;;;;;;;;;5011250;28;20537;-51
2023/07/12 06:35:23;;;;;;;4.00;3.30;;;;;;;;;;5011176;28;20518;-51
2023/07/12 06:37:50;;;;;;;4.60;3.70;;;;;;;;;;5011249;28;20967;-51
2023/07/12 06:40:18;;;;;;;4.10;2.97;;;;;;;;;;5011086;28;20482;-51
2023/07/12 06:42:45;;;;;;;4.87;3.67;;;;;;;;;;5010825;28;20450;-50
2023/07/12 06:45:12;;;;;;;3.50;3.07;;;;;;;;;;5010736;28;20562;-51
2023/07/12 06:47:39;;;;;;;5.70;2.90;;;;;;;;;;5010561;28;20917;-51
2023/07/12 06:50:08;;;;;;;3.47;2.70;;;;;;;;;;5009748;28;20538;-51
2023/07/12 06:52:36;;;;;;;3.97;3.47;;;;;;;;;;5008122;28;20440;-52
2023/07/12 06:55:03;;;;;;;4.00;3.00;;;;;;;;;;5010416;28;21043;-52
2023/07/12 06:57:30;;;;;;;3.47;2.47;;;;;;;;;;5010845;28;20479;-52
2023/07/12 06:59:57;;;;;;;6.97;4.43;;;;;;;;;;5010165;28;20538;-51
2023/07/12 07:02:25;;;;;;;5.30;4.40;;;;;;;;;;5010311;28;20435;-51
2023/07/12 07:04:52;;;;;;;3.60;3.03;;;;;;;;;;5010720;28;20530;-52
2023/07/12 07:07:20;;;;;;;4.37;2.53;;;;;;;;;;5009381;28;20535;-51
2023/07/12 07:09:48;;;;;;;4.80;3.20;;;;;;;;;;5008242;28;20497;-51
2023/07/12 07:12:15;;;;;;;6.10;3.00;;;;;;;;;;4995557;28;20599;-50
2023/07/12 07:14:42;;;;;;;5.50;3.57;;;;;;;;;;4995005;28;20530;-50
2023/07/12 07:17:10;;;;;;;3.80;3.40;;;;;;;;;;5009711;28;21083;-50
2023/07/12 07:19:38;;;;;;;4.10;3.00;;;;;;;;;;5010675;28;20459;-51
2023/07/12 07:22:06;;;;;;;4.83;3.93;;;;;;;;;;5010859;28;20471;-50
2023/07/12 07:24:34;;;;;;;7.20;4.63;;;;;;;;;;5010255;28;20486;-49
2023/07/12 07:27:01;;;;;;;4.23;3.33;;;;;;;;;;5011006;28;20517;-49
2023/07/12 07:29:29;;;;;;;4.13;2.93;;;;;;;;;;5010207;28;20448;-49
2023/07/12 07:31:56;;;;;;;4.47;2.87;;;;;;;;;;5010313;28;20534;-48
2023/07/12 07:34:23;;;;;;;3.80;3.00;;;;;;;;;;5010900;28;20477;-50
2023/07/12 07:36:51;;;;;;;3.10;2.50;;;;;;;;;;5010357;28;20979;-49
2023/07/12 07:39:18;;;;;;;4.80;2.97;;;;;;;;;;5010534;28;20447;-49
2023/07/12 07:41:47;;;;;;;4.27;2.93;;;;;;;;;;5010344;28;20510;-49
2023/07/12 07:44:14;;;;;;;4.67;2.60;;;;;;;;;;5010515;28;20539;-50
2023/07/12 07:46:41;;;;;;;4.33;3.10;;;;;;;;;;5010562;28;20503;-49
2023/07/12 07:49:08;;;;;;;4.03;2.90;;;;;;;;;;5010558;28;20892;-48
2023/07/12 07:51:36;;;;;;;5.00;3.67;;;;;;;;;;5009121;28;20535;-49
2023/07/12 07:54:04;;;;;;;5.90;4.23;;;;;;;;;;5009941;28;20517;-51
2023/07/12 07:56:31;;;;;;;4.87;4.30;;;;;;;;;;5008989;28;21109;-49
2023/07/12 07:59:00;;;;;;;6.30;4.10;;;;;;;;;;5010329;28;20517;-51
2023/07/12 08:01:28;;;;;;;3.30;2.63;;;;;;;;;;5011346;28;20465;-49
2023/07/12 08:03:56;;;;;;;3.10;2.63;;;;;;;;;;5004767;28;20487;-49
2023/07/12 08:06:23;;;;;;;3.70;2.67;;;;;;;;;;4999353;28;20526;-49
2023/07/12 08:08:50;;;;;;;3.53;2.30;;;;;;;;;;5013599;28;20478;-50
2023/07/12 08:11:17;;;;;;;4.00;3.10;;;;;;;;;;5014188;28;20613;-50
2023/07/12 08:13:45;;;;;;;3.60;3.00;;;;;;;;;;5016100;28;21035;-50
2023/07/12 08:16:14;;;;;;;4.00;2.80;;;;;;;;;;5013867;28;20577;-50
2023/07/12 08:18:42;;;;;;;4.23;2.90;;;;;;;;;;5013606;28;20479;-50
2023/07/12 08:21:10;;;;;;;5.00;2.90;;;;;;;;;;5013109;28;20919;-51
2023/07/12 08:23:37;;;;;;;5.07;3.07;;;;;;;;;;5012796;28;20538;-50
2023/07/12 08:26:05;;;;;;;4.67;3.50;;;;;;;;;;5013401;28;20499;-50
2023/07/12 08:28:32;;;;;;;5.83;2.90;;;;;;;;;;5013656;28;20533;-50
2023/07/12 08:30:59;;;;;;;3.63;2.50;;;;;;;;;;5013815;28;20470;-49
2023/07/12 08:33:29;;;;;;;4.53;3.00;;;;;;;;;;5013448;28;20498;-50
2023/07/12 08:35:56;;;;;;;3.90;3.00;;;;;;;;;;5013480;28;20511;-50
2023/07/12 08:38:24;;;;;;;5.20;3.20;;;;;;;;;;5013963;28;21015;-51
2023/07/12 08:40:52;;;;;;;3.70;2.33;;;;;;;;;;5013648;28;20473;-50
2023/07/12 08:43:20;;;;;;;3.80;2.63;;;;;;;;;;5013031;28;20518;-50
2023/07/12 08:45:49;;;;;;;3.83;2.97;;;;;;;;;;5013094;28;20467;-50
2023/07/12 08:48:19;;;;;;;2.80;2.20;;;;;;;;;;5013266;28;20538;-50
2023/07/12 08:50:48;;;;;;;3.10;2.43;;;;;;;;;;5013319;28;20452;-49
2023/07/12 08:53:17;;;;;;;3.40;2.60;;;;;;;;;;5012726;28;21085;-49
2023/07/12 08:55:45;;;;;;;3.90;2.37;;;;;;;;;;5012938;28;20563;-50
2023/07/12 08:58:17;;;;;;;3.60;2.70;;;;;;;;;;5013261;28;20532;-51
2023/07/12 09:00:44;;;;;;;3.83;2.60;;;;;;;;;;5013241;28;20521;-50
2023/07/12 09:03:12;;;;;;;3.67;2.70;;;;;;;;;;5012660;28;20443;-50
2023/07/12 09:05:39;;;;;;;4.07;2.40;;;;;;;;;;5012669;28;20551;-50
2023/07/12 09:08:17;;;;;;;4.03;2.63;;;;;;;;;;5013196;28;20522;-50
2023/07/12 09:10:47;;;;;;;3.43;2.23;;;;;;;;;;5012999;28;20505;-50
2023/07/12 09:13:15;;;;;;;3.90;2.53;;;;;;;;;;5012673;28;20529;-49
2023/07/12 09:15:45;;;;;;;3.30;2.50;;;;;;;;;;5013226;28;20470;-50
2023/07/12 09:18:22;;;;;;;3.37;2.10;;;;;;;;;;5012920;28;20546;-49
2023/07/12 09:20:51;;;;;;;3.20;2.57;;;;;;;;;;5012672;28;20474;-49
2023/07/12 09:23:20;;;;;;;3.63;2.37;;;;;;;;;;5011799;28;20439;-50
2023/07/12 09:25:54;;;;;;;3.63;2.23;;;;;;;;;;5012745;28;20566;-50
2023/07/12 09:28:21;;;;;;;3.00;2.20;;;;;;;;;;5012897;28;20929;-49
2023/07/12 09:30:50;;;;;;;3.10;2.37;;;;;;;;;;5012748;28;20927;-49
2023/07/12 09:33:18;;;;;;;3.40;2.43;;;;;;;;;;5012097;28;21159;-50
2023/07/12 09:35:47;;;;;;;3.90;2.77;;;;;;;;;;5011763;28;20520;-49
2023/07/12 09:38:15;;;;;;;3.27;2.47;;;;;;;;;;5012294;28;20479;-49
2023/07/12 09:40:45;;;;;;;4.60;2.43;;;;;;;;;;5012309;28;20534;-50
2023/07/12 09:43:16;;;;;;;3.20;2.20;;;;;;;;;;5012078;28;20932;-48
2023/07/12 09:45:45;;;;;;;4.57;2.50;;;;;;;;;;5012165;28;21001;-48
2023/07/12 09:48:19;;;;;;;7.73;3.60;;;;;;;;;;5012112;28;20501;-47
2023/07/12 09:50:51;;;;;;;3.40;2.53;;;;;;;;;;5012221;28;20811;-50
2023/07/12 09:53:29;;;;;;;3.20;2.40;;;;;;;;;;5011893;28;20443;-49
2023/07/12 09:56:02;;;;;;;5.53;2.93;;;;;;;;;;5011434;28;20542;-48
2023/07/12 09:58:33;;;;;;;3.70;3.10;;;;;;;;;;5011586;28;20533;-48
2023/07/12 10:01:03;;;;;;;4.30;2.63;;;;;;;;;;5010984;28;20440;-48
2023/07/12 10:03:32;;;;;;;6.17;2.90;;;;;;;;;;5003656;28;20904;-48
2023/07/12 10:06:02;;;;;;;4.13;2.70;;;;;;;;;;5003784;28;20549;-49
2023/07/12 10:08:38;;;;;;;3.30;2.40;;;;;;;;;;5001297;28;20479;-48
2023/07/12 10:11:09;;;;;;;3.50;2.53;;;;;;;;;;5009622;28;20467;-48
2023/07/12 10:13:40;;;;;;;3.30;2.60;;;;;;;;;;5011073;28;20891;-48
2023/07/12 10:16:11;;;;;;;4.53;2.90;;;;;;;;;;5011185;28;20889;-49
2023/07/12 10:18:39;;;;;;;3.60;2.40;;;;;;;;;;5009038;28;20446;-48
2023/07/12 10:21:07;;;;;;;4.43;3.27;;;;;;;;;;5010957;28;20880;-49
2023/07/12 10:23:38;;;;;;;3.43;2.80;;;;;;;;;;5010268;28;20501;-48
2023/07/12 10:26:07;;;;;;;3.80;2.60;;;;;;;;;;5010739;28;20507;-47
2023/07/12 10:28:41;;;;;;;6.17;3.23;;;;;;;;;;5010159;28;20513;-48
2023/07/12 10:31:25;;;;;;;6.17;3.23;;;;;;;;;;5009465;28;20530;-49
2023/07/12 10:33:55;;;;;;;4.40;2.90;;;;;;;;;;5008397;28;20463;-50
2023/07/12 10:36:25;;;;;;;4.20;3.03;;;;;;;;;;5006063;28;20898;-48
2023/07/12 10:38:53;;;;;;;3.93;2.63;;;;;;;;;;5007915;28;20543;-48
2023/07/12 10:41:23;;;;;;;4.70;2.30;;;;;;;;;;5007126;28;20558;-49
2023/07/12 10:43:53;;;;;;;3.30;2.30;;;;;;;;;;5010740;28;20447;-47
2023/07/12 10:46:23;;;;;;;3.40;2.13;;;;;;;;;;5010395;28;20547;-47
2023/07/12 10:48:51;;;;;;;3.77;2.77;;;;;;;;;;5010708;28;20522;-49
2023/07/12 10:51:21;;;;;;;3.73;2.27;;;;;;;;;;5009939;28;20454;-49
2023/07/12 10:53:52;;;;;;;3.50;2.70;;;;;;;;;;5008644;28;20451;-48
2023/07/12 10:56:21;;;;;;;3.20;2.07;;;;;;;;;;5007581;28;20487;-48
2023/07/12 10:58:50;;;;;;;3.47;2.43;;;;;;;;;;5008240;28;20498;-48
2023/07/12 11:01:38;;;;;;;6.00;2.83;;;;;;;;;;5007514;28;20479;-47
2023/07/12 11:04:09;;;;;;;3.10;2.10;;;;;;;;;;5009045;28;20456;-48
2023/07/12 11:06:36;;;;;;;5.97;2.70;;;;;;;;;;5009102;28;20538;-48
2023/07/12 11:09:08;;;;;;;4.60;2.93;;;;;;;;;;5009388;28;20494;-48
2023/07/12 11:11:41;;;;;;;4.10;2.40;;;;;;;;;;5009091;28;20447;-49
2023/07/12 11:14:26;;;;;;;3.33;2.60;;;;;;;;;;5009061;28;20534;-49
2023/07/12 11:17:04;;;;;;;2.93;2.23;;;;;;;;;;5005481;28;20482;-49
2023/07/12 11:19:37;;;;;;;3.40;2.50;;;;;;;;;;4990281;28;20491;-48
2023/07/12 11:22:06;;;;;;;3.50;2.83;;;;;;;;;;4999061;28;20534;-49
2023/07/12 11:24:38;;;;;;;4.80;3.10;;;;;;;;;;5009641;28;21035;-48
2023/07/12 11:27:09;;;;;;;3.10;2.30;;;;;;;;;;5010653;28;20443;-49
2023/07/12 11:29:46;;;;;;;3.17;2.40;;;;;;;;;;5010372;28;20526;-48
2023/07/12 11:32:18;;;;;;;4.43;2.63;;;;;;;;;;5010232;28;20458;-48
2023/07/12 11:34:46;;;;;;;3.10;2.00;;;;;;;;;;5011404;28;20478;-48
2023/07/12 11:37:17;;;;;;;3.50;2.60;;;;;;;;;;5014445;28;20587;-49
2023/07/12 11:39:46;;;;;;;3.67;3.17;;;;;;;;;;5014431;28;20545;-49
2023/07/12 11:42:23;;;;;;;4.30;2.70;;;;;;;;;;5013895;28;20975;-49
2023/07/12 11:45:01;;;;;;;5.40;2.27;;;;;;;;;;5013441;28;20537;-48
2023/07/12 11:47:28;;;;;;;4.23;2.43;;;;;;;;;;5014054;28;20894;-48
2023/07/12 11:49:57;;;;;;;3.70;2.63;;;;;;;;;;5014348;28;20443;-48
2023/07/12 11:52:25;;;;;;;3.40;2.30;;;;;;;;;;5014067;28;20457;-48
2023/07/12 11:54:53;;;;;;;4.63;2.40;;;;;;;;;;5012978;28;20539;-48
2023/07/12 11:57:20;;;;;;;4.73;3.03;;;;;;;;;;5014047;28;20850;-47
2023/07/12 11:59:48;;;;;;;3.47;2.70;;;;;;;;;;5014031;28;20527;-49
2023/07/12 12:02:18;;;;;;;3.33;2.33;;;;;;;;;;5013885;28;20541;-49
2023/07/12 12:04:48;;;;;;;3.10;2.70;;;;;;;;;;5013999;28;20450;-47
2023/07/12 12:07:21;;;;;;;3.07;2.37;;;;;;;;;;5013581;28;20479;-49
2023/07/12 12:09:49;;;;;;;2.90;2.37;;;;;;;;;;5013807;28;21010;-48
2023/07/12 12:12:19;;;;;;;4.43;2.60;;;;;;;;;;5013960;28;20453;-48
2023/07/12 12:14:48;;;;;;;3.67;2.40;;;;;;;;;;5013843;28;20483;-49
2023/07/12 12:17:18;;;;;;;4.07;2.90;;;;;;;;;;5014100;28;20470;-48
2023/07/12 12:19:49;;;;;;;4.23;2.37;;;;;;;;;;5013771;28;20521;-47
2023/07/12 12:22:17;;;;;;;3.50;2.20;;;;;;;;;;5013815;28;20438;-49
2023/07/12 12:24:47;;;;;;;5.17;3.13;;;;;;;;;;5013435;28;20546;-49
2023/07/12 12:27:18;;;;;;;3.63;2.33;;;;;;;;;;5013868;28;20478;-48
2023/07/12 12:29:45;;;;;;;3.20;2.90;;;;;;;;;;5013690;28;20445;-48
2023/07/12 12:32:16;;;;;;;4.00;3.03;;;;;;;;;;5013555;28;20538;-49
2023/07/12 12:34:47;;;;;;;4.03;2.87;;;;;;;;;;5013259;28;20451;-49
2023/07/12 12:37:18;;;;;;;4.13;3.10;;;;;;;;;;5013298;28;20855;-48
2023/07/12 12:39:57;;;;;;;4.57;3.13;;;;;;;;;;5013120;28;20526;-48
2023/07/12 12:42:25;;;;;;;3.70;3.13;;;;;;;;;;5013087;28;20542;-47
2023/07/12 12:44:54;;;;;;;3.73;3.30;;;;;;;;;;5012746;28;20534;-47
2023/07/12 12:47:23;;;;;;;4.67;3.47;;;;;;;;;;5013010;28;20443;-48
2023/07/12 12:49:54;;;;;;;3.70;3.03;;;;;;;;;;5013422;28;20501;-48
2023/07/12 12:52:26;;;;;;;4.87;2.90;;;;;;;;;;5012839;28;21031;-47
2023/07/12 12:54:53;;;;;;;3.80;3.00;;;;;;;;;;5013055;28;20534;-49
2023/07/12 12:57:21;;;;;;;4.33;3.10;;;;;;;;;;5012818;28;20835;-48
2023/07/12 12:59:48;;;;;;;4.33;3.40;;;;;;;;;;5013063;28;20528;-48
2023/07/12 13:02:16;;;;;;;4.50;3.13;;;;;;;;;;5012561;28;20478;-48
2023/07/12 13:04:44;;;;;;;5.73;3.10;;;;;;;;;;5012573;28;20947;-49
2023/07/12 13:07:20;;;;;;;3.60;2.93;;;;;;;;;;5012443;28;20482;-50
2023/07/12 13:09:48;;;;;;;3.93;3.53;;;;;;;;;;5012874;28;20526;-49
2023/07/12 13:12:17;;;;;;;3.87;2.90;;;;;;;;;;5012794;28;20529;-50
2023/07/12 13:14:44;;;;;;;3.30;2.63;;;;;;;;;;5012361;28;20458;-49
2023/07/12 13:17:15;;;;;;;4.00;3.53;;;;;;;;;;5012594;28;20443;-49
2023/07/12 13:19:42;;;;;;;4.07;3.57;;;;;;;;;;5012740;28;20452;-49
2023/07/12 13:22:12;;;;;;;3.73;3.33;;;;;;;;;;5012268;28;20534;-48
2023/07/12 13:24:41;;;;;;;3.27;2.63;;;;;;;;;;5012553;28;20443;-48
2023/07/12 13:27:14;;;;;;;4.93;2.83;;;;;;;;;;5012751;28;20501;-48
2023/07/12 13:29:41;;;;;;;3.73;3.33;;;;;;;;;;5012701;28;20475;-48
2023/07/12 13:32:11;;;;;;;4.70;2.70;;;;;;;;;;5012344;28;20476;-49
2023/07/12 13:34:38;;;;;;;3.13;2.27;;;;;;;;;;5012112;28;20940;-49
2023/07/12 13:37:05;;;;;;;3.23;2.60;;;;;;;;;;5012453;28;20534;-47
2023/07/12 13:39:33;;;;;;;4.57;2.60;;;;;;;;;;5012410;28;20479;-47
2023/07/12 13:42:02;;;;;;;3.93;3.10;;;;;;;;;;5012371;28;20482;-49
2023/07/12 13:44:29;;;;;;;4.10;3.50;;;;;;;;;;5012632;28;20530;-49
2023/07/12 13:46:56;;;;;;;4.93;3.57;;;;;;;;;;5012403;28;20551;-50
2023/07/12 13:49:23;;;;;;;4.07;3.27;;;;;;;;;;5013019;28;20529;-50
2023/07/12 13:51:50;;;;;;;3.80;3.13;;;;;;;;;;5012903;28;20443;-50
2023/07/12 13:54:19;;;;;;;4.03;2.80;;;;;;;;;;5012315;28;20522;-50
2023/07/12 13:56:47;;;;;;;3.20;2.60;;;;;;;;;;5011672;28;20467;-49
2023/07/12 13:59:15;;;;;;;3.57;2.87;;;;;;;;;;5012740;28;20506;-50
2023/07/12 14:01:43;;;;;;;3.00;2.30;;;;;;;;;;5011839;28;20997;-49
2023/07/12 14:04:13;;;;;;;3.37;2.37;;;;;;;;;;5012761;28;20530;-50
2023/07/12 14:06:40;;;;;;;3.00;2.63;;;;;;;;;;5012045;28;20463;-50
2023/07/12 14:09:07;;;;;;;3.10;2.77;;;;;;;;;;5011258;28;20530;-50
2023/07/12 14:11:35;;;;;;;3.37;2.97;;;;;;;;;;5012021;28;20486;-50
2023/07/12 14:14:02;;;;;;;4.13;2.97;;;;;;;;;;5011493;28;20896;-51
2023/07/12 14:16:33;;;;;;;3.57;2.37;;;;;;;;;;5011762;28;20551;-51
2023/07/12 14:19:00;;;;;;;3.53;2.93;;;;;;;;;;5009999;28;21028;-51
2023/07/12 14:21:28;;;;;;;3.23;2.50;;;;;;;;;;5012123;28;20497;-51
2023/07/12 14:23:56;;;;;;;3.47;2.30;;;;;;;;;;5011835;28;20479;-51
2023/07/12 14:26:24;;;;;;;3.63;2.43;;;;;;;;;;5012091;28;20521;-51
2023/07/12 14:28:52;;;;;;;5.50;2.27;;;;;;;;;;5011958;28;20709;-50
2023/07/12 14:31:20;;;;;;;3.97;2.47;;;;;;;;;;5011077;28;20478;-51
2023/07/12 14:33:50;;;;;;;3.20;2.40;;;;;;;;;;5010965;28;20455;-51
2023/07/12 14:36:18;;;;;;;2.90;2.23;;;;;;;;;;5011076;28;20495;-51
2023/07/12 14:38:46;;;;;;;3.33;3.03;;;;;;;;;;5011079;28;20479;-51
2023/07/12 14:41:19;;;;;;;4.70;3.07;;;;;;;;;;5011226;28;20505;-51
2023/07/12 14:43:46;;;;;;;5.70;2.77;;;;;;;;;;5010932;28;20928;-51
2023/07/12 14:46:13;;;;;;;3.40;2.87;;;;;;;;;;5010854;28;20995;-51
2023/07/12 14:48:41;;;;;;;4.60;2.97;;;;;;;;;;5011083;28;20884;-51
2023/07/12 14:51:15;;;;;;;3.37;2.70;;;;;;;;;;5011040;28;20534;-50